Time;durP1;ratioP1;P1;durP2;ratioP2;P2;SDS_P1;SDS_P2;PMS_P1;PMS_P2;Temp;Humidity;BMP_temperature;BMP_pressure;BME280_temperature;BME280_humidity;BME280_pressure;Samples;Min_cycle;Max_cycle;Signal;HPM_P1;HPM_P2
2023/06/02 00:02:18;;;;;;;12.25;3.17;;;10.70;99.90;;;;;;5072611;28;20040;-65
2023/06/02 00:04:44;;;;;;;13.60;3.85;;;10.70;99.90;;;;;;5090400;28;20044;-66
2023/06/02 00:07:11;;;;;;;12.35;3.50;;;10.70;99.90;;;;;;5090372;28;20035;-65
2023/06/02 00:09:42;;;;;;;17.40;3.08;;;10.70;99.90;;;;;;5090938;28;20071;-65
2023/06/02 00:12:09;;;;;;;11.98;3.50;;;10.70;99.90;;;;;;5090698;28;20036;-65
2023/06/02 00:14:37;;;;;;;13.32;3.78;;;10.70;99.90;;;;;;5091510;28;20530;-65
2023/06/02 00:17:03;;;;;;;8.23;2.75;;;10.70;99.90;;;;;;5091116;28;20450;-65
2023/06/02 00:19:32;;;;;;;12.98;3.70;;;10.70;99.90;;;;;;5091428;28;20047;-65
2023/06/02 00:22:00;;;;;;;11.15;3.05;;;10.70;99.90;;;;;;5091317;28;20122;-65
2023/06/02 00:24:26;;;;;;;10.20;2.97;;;10.70;99.90;;;;;;5090880;28;20032;-65
2023/06/02 00:26:51;;;;;;;12.13;3.25;;;10.70;99.90;;;;;;5090009;28;20042;-65
2023/06/02 00:29:17;;;;;;;9.40;3.10;;;10.70;99.90;;;;;;5090922;28;20078;-65
2023/06/02 00:31:43;;;;;;;10.05;2.97;;;10.70;99.90;;;;;;5089702;28;20093;-65
2023/06/02 00:34:08;;;;;;;10.43;3.00;;;10.70;99.90;;;;;;5091465;28;20058;-65
2023/06/02 00:36:34;;;;;;;15.90;3.38;;;10.70;99.90;;;;;;5090222;28;20036;-65
2023/06/02 00:39:00;;;;;;;11.90;3.00;;;10.70;99.90;;;;;;5090436;28;20040;-65
2023/06/02 00:41:25;;;;;;;11.32;2.80;;;10.70;99.90;;;;;;5090952;28;20381;-65
2023/06/02 00:43:52;;;;;;;15.27;3.13;;;10.70;99.90;;;;;;5089728;28;20040;-65
2023/06/02 00:46:17;;;;;;;10.60;3.20;;;10.70;99.90;;;;;;5051591;28;1117643;-65
2023/06/02 00:48:43;;;;;;;19.77;5.03;;;10.70;99.90;;;;;;5094982;28;20123;-65
2023/06/02 00:51:10;;;;;;;11.13;3.17;;;10.70;99.90;;;;;;5110255;28;20077;-65
2023/06/02 00:53:37;;;;;;;12.23;2.90;;;10.60;99.90;;;;;;5112714;28;20044;-65
2023/06/02 00:56:03;;;;;;;11.90;3.50;;;10.60;99.90;;;;;;5112476;28;20357;-65
2023/06/02 00:58:29;;;;;;;12.27;3.42;;;10.70;99.90;;;;;;5110064;28;20051;-65
2023/06/02 01:00:55;;;;;;;11.05;3.38;;;10.60;99.90;;;;;;5110677;28;20396;-65
2023/06/02 01:03:21;;;;;;;10.40;3.05;;;10.70;99.90;;;;;;5110892;28;20048;-65
2023/06/02 01:05:50;;;;;;;15.60;3.17;;;10.70;99.90;;;;;;5111349;28;20063;-65
2023/06/02 01:08:17;;;;;;;23.15;4.00;;;10.60;99.90;;;;;;5111827;28;20492;-63
2023/06/02 01:10:44;;;;;;;11.85;3.42;;;10.60;99.90;;;;;;5112115;28;20119;-63
2023/06/02 01:13:09;;;;;;;24.45;4.47;;;10.60;99.90;;;;;;5111383;28;20095;-63
2023/06/02 01:15:35;;;;;;;13.77;3.40;;;10.60;99.90;;;;;;5112388;28;20532;-63
2023/06/02 01:18:09;;;;;;;10.88;2.72;;;10.60;99.90;;;;;;5111018;28;20036;-63
2023/06/02 01:20:44;;;;;;;8.48;2.40;;;10.60;99.90;;;;;;5110328;28;20040;-63
2023/06/02 01:23:15;;;;;;;14.70;3.63;;;10.60;99.90;;;;;;5111881;28;20047;-63
2023/06/02 01:25:41;;;;;;;15.38;3.13;;;10.60;99.90;;;;;;5110963;28;20618;-63
2023/06/02 01:28:07;;;;;;;12.27;3.05;;;10.60;99.90;;;;;;5110463;28;20067;-63
2023/06/02 01:30:33;;;;;;;14.82;3.70;;;10.60;99.90;;;;;;5112099;28;20070;-63
2023/06/02 01:33:15;;;;;;;14.20;3.97;;;10.60;99.90;;;;;;5111867;28;20127;-63
2023/06/02 01:35:45;;;;;;;12.25;3.20;;;10.60;99.90;;;;;;5110390;28;20054;-63
2023/06/02 01:38:13;;;;;;;18.45;4.00;;;10.50;99.90;;;;;;5111771;28;20070;-63
2023/06/02 01:40:40;;;;;;;13.02;3.75;;;10.50;99.90;;;;;;5111111;28;20035;-63
2023/06/02 01:43:06;;;;;;;10.55;2.70;;;10.50;99.90;;;;;;5113889;28;20055;-63
2023/06/02 01:45:38;;;;;;;9.80;3.03;;;10.50;99.90;;;;;;5113944;28;20066;-63
2023/06/02 01:48:06;;;;;;;12.35;3.20;;;10.50;99.90;;;;;;5113698;28;20062;-63
2023/06/02 01:50:33;;;;;;;18.35;3.40;;;10.50;99.90;;;;;;5114228;28;20043;-63
2023/06/02 01:52:58;;;;;;;12.00;3.17;;;10.50;99.90;;;;;;5114070;28;20078;-63
2023/06/02 01:55:24;;;;;;;13.32;2.83;;;10.50;99.90;;;;;;5114593;28;20075;-63
2023/06/02 01:57:50;;;;;;;12.57;3.67;;;10.50;99.90;;;;;;5113757;28;20051;-63
2023/06/02 02:00:17;;;;;;;10.25;3.58;;;10.50;99.90;;;;;;5115039;28;20539;-63
2023/06/02 02:02:43;;;;;;;13.27;4.30;;;10.50;99.90;;;;;;5112807;28;20039;-63
2023/06/02 02:05:09;;;;;;;12.63;3.63;;;10.50;99.90;;;;;;5105851;28;20132;-63
2023/06/02 02:07:35;;;;;;;13.35;3.47;;;10.50;99.90;;;;;;5093626;28;20044;-63
2023/06/02 02:10:02;;;;;;;14.55;2.70;;;10.50;99.90;;;;;;5092517;28;20123;-63
2023/06/02 02:12:28;;;;;;;14.85;4.07;;;10.50;99.90;;;;;;5093321;28;21231;-63
2023/06/02 02:14:56;;;;;;;17.80;4.25;;;10.50;99.90;;;;;;5093191;28;20135;-63
2023/06/02 02:17:25;;;;;;;12.75;3.45;;;10.50;99.90;;;;;;5075401;28;20089;-63
2023/06/02 02:19:51;;;;;;;14.68;3.92;;;10.60;99.90;;;;;;5094292;28;20411;-63
2023/06/02 02:22:17;;;;;;;14.00;3.20;;;10.60;99.90;;;;;;5093048;28;20071;-63
2023/06/02 02:24:43;;;;;;;11.80;3.45;;;10.50;99.90;;;;;;5092531;28;20450;-63
2023/06/02 02:27:08;;;;;;;12.85;3.53;;;10.50;99.90;;;;;;5093223;28;20032;-63
2023/06/02 02:29:36;;;;;;;22.48;3.83;;;10.50;99.90;;;;;;5093641;28;20078;-63
2023/06/02 02:32:01;;;;;;;12.75;3.97;;;10.60;99.90;;;;;;5093113;28;20473;-63
2023/06/02 02:34:28;;;;;;;12.07;3.05;;;10.60;99.90;;;;;;5108319;28;20039;-63
2023/06/02 02:37:01;;;;;;;22.55;4.22;;;10.60;99.90;;;;;;5112439;28;20051;-63
2023/06/02 02:39:27;;;;;;;15.50;3.47;;;10.60;99.90;;;;;;5114488;28;20040;-63
2023/06/02 02:41:53;;;;;;;10.98;3.38;;;10.60;99.90;;;;;;5113082;28;20484;-63
2023/06/02 02:44:19;;;;;;;14.77;3.72;;;10.60;99.90;;;;;;5112113;28;20069;-63
2023/06/02 02:46:44;;;;;;;14.40;3.53;;;10.60;99.90;;;;;;5112891;28;20044;-63
2023/06/02 02:49:10;;;;;;;13.40;3.75;;;10.60;99.90;;;;;;5114352;28;20106;-63
2023/06/02 02:51:37;;;;;;;17.17;4.28;;;10.60;99.90;;;;;;5113941;28;20043;-63
2023/06/02 02:54:03;;;;;;;16.67;5.18;;;10.60;99.90;;;;;;5113438;28;20052;-63
2023/06/02 02:56:30;;;;;;;14.05;3.72;;;10.60;99.90;;;;;;5114018;28;20126;-63
2023/06/02 02:58:59;;;;;;;9.07;4.03;;;10.60;99.90;;;;;;5111847;28;20043;-63
2023/06/02 03:01:26;;;;;;;16.30;4.50;;;10.60;99.90;;;;;;5112373;28;20075;-63
2023/06/02 03:03:53;;;;;;;19.75;3.70;;;10.50;99.90;;;;;;5114064;28;20043;-63
2023/06/02 03:06:19;;;;;;;15.52;3.40;;;10.60;99.90;;;;;;5111990;28;20553;-63
2023/06/02 03:08:48;;;;;;;24.33;4.82;;;10.60;99.90;;;;;;5112425;28;20035;-63
2023/06/02 03:11:19;;;;;;;17.35;4.78;;;10.60;99.90;;;;;;5112378;28;20555;-63
2023/06/02 03:13:44;;;;;;;14.40;3.65;;;10.60;99.90;;;;;;5111586;28;20487;-63
2023/06/02 03:16:10;;;;;;;18.50;3.72;;;10.60;99.90;;;;;;5112204;28;20054;-63
2023/06/02 03:18:36;;;;;;;16.55;3.60;;;10.60;99.90;;;;;;5114064;28;20040;-63
2023/06/02 03:21:05;;;;;;;11.13;3.22;;;10.60;99.90;;;;;;5094717;28;20043;-63
2023/06/02 03:23:30;;;;;;;16.55;4.45;;;10.60;99.90;;;;;;5112175;28;20073;-63
2023/06/02 03:25:56;;;;;;;10.52;3.63;;;10.60;99.90;;;;;;5111425;28;20039;-63
2023/06/02 03:28:22;;;;;;;11.88;3.85;;;10.60;99.90;;;;;;5113357;28;20054;-63
2023/06/02 03:30:47;;;;;;;13.68;4.22;;;10.60;99.90;;;;;;5111979;28;20062;-62
2023/06/02 03:33:13;;;;;;;14.05;3.75;;;10.60;99.90;;;;;;5112446;28;20039;-63
2023/06/02 03:35:40;;;;;;;16.63;4.25;;;10.60;99.90;;;;;;5112047;28;20057;-63
2023/06/02 03:38:06;;;;;;;15.05;3.65;;;10.70;99.90;;;;;;5113638;28;20047;-63
2023/06/02 03:40:33;;;;;;;12.25;2.97;;;10.60;99.90;;;;;;5112462;28;20429;-63
2023/06/02 03:42:59;;;;;;;13.35;3.70;;;10.70;99.90;;;;;;5112861;28;20061;-63
2023/06/02 03:45:24;;;;;;;14.30;3.97;;;10.70;99.90;;;;;;5094571;28;20117;-63
2023/06/02 03:47:50;;;;;;;13.15;3.97;;;10.70;99.90;;;;;;5112468;28;20043;-63
2023/06/02 03:50:16;;;;;;;11.02;4.30;;;10.70;99.90;;;;;;5111702;28;20526;-63
2023/06/02 03:52:42;;;;;;;14.68;4.10;;;10.70;99.90;;;;;;5111817;28;20082;-63
2023/06/02 03:55:08;;;;;;;14.45;3.85;;;10.70;99.90;;;;;;5110808;28;20067;-63
2023/06/02 03:57:33;;;;;;;12.68;3.53;;;10.70;99.90;;;;;;5111698;28;20455;-63
2023/06/02 03:59:59;;;;;;;15.70;4.15;;;10.80;99.90;;;;;;5112933;28;20419;-63
2023/06/02 04:02:25;;;;;;;13.55;3.90;;;10.80;99.90;;;;;;5110657;28;20051;-63
2023/06/02 04:04:54;;;;;;;12.02;3.47;;;10.80;99.90;;;;;;5094337;28;20032;-63
2023/06/02 04:07:19;;;;;;;14.57;3.97;;;10.80;99.90;;;;;;5111776;28;20389;-63
2023/06/02 04:09:45;;;;;;;11.00;3.72;;;10.80;99.90;;;;;;5110587;28;20035;-63
2023/06/02 04:12:11;;;;;;;7.78;3.00;;;10.80;99.90;;;;;;5112378;28;20046;-63
2023/06/02 04:14:37;;;;;;;12.95;3.70;;;10.80;99.90;;;;;;5111507;28;20046;-63
2023/06/02 04:17:03;;;;;;;15.90;3.72;;;10.80;99.90;;;;;;5112232;28;20136;-63
2023/06/02 04:19:28;;;;;;;16.98;4.10;;;10.90;99.90;;;;;;5111515;28;20044;-63
2023/06/02 04:21:54;;;;;;;18.52;4.47;;;10.90;99.90;;;;;;5112552;28;20039;-63
2023/06/02 04:24:19;;;;;;;11.35;3.65;;;10.90;99.90;;;;;;5111552;28;20038;-63
2023/06/02 04:26:46;;;;;;;15.32;4.10;;;10.90;99.90;;;;;;5111166;28;20036;-63
2023/06/02 04:29:12;;;;;;;12.55;3.83;;;11.00;99.90;;;;;;5111752;28;20036;-63
2023/06/02 04:31:43;;;;;;;17.95;4.53;;;11.00;99.90;;;;;;5112556;28;20050;-63
2023/06/02 04:34:12;;;;;;;17.25;4.15;;;11.00;99.90;;;;;;5111454;28;20043;-63
2023/06/02 04:36:38;;;;;;;13.23;4.10;;;11.00;99.90;;;;;;5111558;28;20075;-63
2023/06/02 04:39:09;;;;;;;19.05;4.40;;;11.10;99.90;;;;;;5111386;28;20048;-63
2023/06/02 04:41:36;;;;;;;15.18;5.05;;;11.10;99.90;;;;;;5112701;28;20036;-63
2023/06/02 04:44:02;;;;;;;16.15;4.38;;;11.10;99.90;;;;;;5111601;28;20035;-63
2023/06/02 04:46:28;;;;;;;15.15;3.88;;;11.20;99.90;;;;;;5112348;28;20101;-63
2023/06/02 04:48:54;;;;;;;14.88;4.50;;;11.20;99.90;;;;;;5112288;28;20469;-63
2023/06/02 04:51:35;;;;;;;15.90;3.95;;;11.20;99.90;;;;;;5109997;28;20119;-63
2023/06/02 04:54:00;;;;;;;12.95;3.63;;;11.20;99.90;;;;;;5112182;28;20051;-63
2023/06/02 04:56:27;;;;;;;12.88;4.13;;;11.20;99.90;;;;;;5111017;28;20084;-63
2023/06/02 04:58:53;;;;;;;21.15;5.00;;;11.30;99.90;;;;;;5111487;28;20065;-63
2023/06/02 05:01:19;;;;;;;11.98;3.90;;;11.30;99.90;;;;;;5111029;28;20067;-63
2023/06/02 05:03:45;;;;;;;15.60;5.13;;;11.30;99.90;;;;;;5093862;28;20468;-63
2023/06/02 05:06:10;;;;;;;12.32;4.13;;;11.30;99.90;;;;;;5110008;28;20086;-63
2023/06/02 05:08:36;;;;;;;11.00;3.28;;;11.30;99.90;;;;;;5111017;28;20040;-63
2023/06/02 05:11:02;;;;;;;18.35;4.68;;;11.30;99.90;;;;;;5112263;28;20040;-63
2023/06/02 05:13:28;;;;;;;15.68;4.18;;;11.30;99.90;;;;;;5110128;28;20156;-63
2023/06/02 05:15:55;;;;;;;14.82;4.22;;;11.40;99.90;;;;;;5112054;28;20035;-63
2023/06/02 05:18:21;;;;;;;15.32;4.65;;;11.40;99.90;;;;;;5113651;28;20039;-63
2023/06/02 05:20:48;;;;;;;23.38;4.55;;;11.40;99.90;;;;;;5114677;28;20092;-63
2023/06/02 05:23:13;;;;;;;14.48;4.38;;;11.40;99.90;;;;;;5114424;28;20048;-63
2023/06/02 05:25:40;;;;;;;15.88;3.88;;;11.40;99.90;;;;;;5113820;28;20090;-63
2023/06/02 05:28:06;;;;;;;14.07;4.15;;;11.50;99.90;;;;;;5097819;28;20032;-63
2023/06/02 05:30:32;;;;;;;19.77;5.28;;;11.50;99.90;;;;;;5097727;28;20096;-63
2023/06/02 05:32:57;;;;;;;13.70;4.85;;;11.50;99.90;;;;;;5096574;28;20046;-63
2023/06/02 05:35:23;;;;;;;17.52;3.92;;;11.50;99.90;;;;;;5115610;28;20043;-63
2023/06/02 05:37:49;;;;;;;15.43;4.72;;;11.60;99.90;;;;;;5114478;28;20101;-63
2023/06/02 05:40:14;;;;;;;16.55;5.10;;;11.60;99.90;;;;;;5113587;28;20533;-63
2023/06/02 05:42:40;;;;;;;15.32;4.43;;;11.60;99.90;;;;;;5115232;27;20562;-64
2023/06/02 05:45:06;;;;;;;11.80;4.68;;;11.60;99.90;;;;;;5115369;28;20051;-64
2023/06/02 05:47:32;;;;;;;13.93;4.65;;;11.60;99.90;;;;;;5113222;28;20480;-64
2023/06/02 05:49:58;;;;;;;27.17;5.60;;;11.60;99.90;;;;;;5115217;28;20046;-64
2023/06/02 05:52:24;;;;;;;21.58;4.53;;;11.70;99.90;;;;;;5115220;28;20058;-64
2023/06/02 05:54:50;;;;;;;17.20;5.55;;;11.70;99.90;;;;;;5113300;28;20051;-64
2023/06/02 05:57:19;;;;;;;19.20;4.55;;;11.70;99.90;;;;;;5115375;28;20044;-64
2023/06/02 05:59:45;;;;;;;20.00;5.55;;;11.80;99.90;;;;;;5115112;28;20423;-64
2023/06/02 06:02:11;;;;;;;12.13;4.75;;;11.80;99.90;;;;;;5113099;28;20054;-64
2023/06/02 06:04:37;;;;;;;22.63;5.93;;;11.90;99.90;;;;;;5114881;28;20028;-64
2023/06/02 06:07:04;;;;;;;20.30;6.20;;;11.90;99.90;;;;;;5113977;28;20503;-64
2023/06/02 06:09:30;;;;;;;25.05;6.03;;;12.00;99.90;;;;;;5112929;28;20031;-64
2023/06/02 06:11:55;;;;;;;20.67;6.38;;;12.10;99.90;;;;;;5113733;28;20040;-64
2023/06/02 06:14:21;;;;;;;26.15;6.38;;;12.10;99.90;;;;;;5114767;28;20071;-64
2023/06/02 06:16:47;;;;;;;17.33;4.82;;;12.20;99.90;;;;;;5112675;28;20048;-64
2023/06/02 06:19:12;;;;;;;19.83;6.28;;;12.20;99.90;;;;;;5114753;28;20491;-64
2023/06/02 06:21:38;;;;;;;18.63;5.82;;;12.20;99.90;;;;;;5114028;28;20046;-64
2023/06/02 06:24:07;;;;;;;24.42;6.50;;;12.30;99.90;;;;;;5114782;28;20476;-64
2023/06/02 06:26:33;;;;;;;19.67;5.28;;;12.30;99.90;;;;;;5114607;27;20511;-64
2023/06/02 06:28:59;;;;;;;16.67;5.78;;;12.30;99.90;;;;;;5109243;28;20471;-64
2023/06/02 06:31:25;;;;;;;18.05;5.78;;;12.40;99.90;;;;;;5101401;28;20072;-64
2023/06/02 07:13:27;;;;;;;13.15;4.70;;;13.10;99.90;;;;;;5103185;28;20054;-64
2023/06/02 07:15:53;;;;;;;22.65;6.13;;;13.20;99.90;;;;;;5089589;28;20048;-64
2023/06/02 07:18:19;;;;;;;22.17;6.50;;;13.20;99.90;;;;;;5088980;28;20060;-65
2023/06/02 07:20:44;;;;;;;20.00;5.05;;;13.30;99.90;;;;;;5089675;28;20180;-64
2023/06/02 07:23:10;;;;;;;16.45;5.00;;;13.30;99.90;;;;;;5095198;27;20496;-65
2023/06/02 07:25:36;;;;;;;25.10;5.70;;;13.40;99.90;;;;;;5108343;28;20046;-65
2023/06/02 07:28:04;;;;;;;12.75;4.65;;;13.50;99.90;;;;;;5108532;28;20053;-65
2023/06/02 07:30:31;;;;;;;18.70;4.63;;;13.60;99.90;;;;;;5081694;28;20101;-65
2023/06/02 08:06:06;;;;;;;15.80;3.75;;;15.10;99.90;;;;;;5100379;28;20030;-65
2023/06/02 08:08:31;;;;;;;19.17;4.35;;;15.20;99.90;;;;;;5090389;28;20121;-64
2023/06/02 08:10:59;;;;;;;18.92;4.60;;;15.50;99.90;;;;;;5088309;28;20564;-65
2023/06/02 08:13:25;;;;;;;11.43;4.07;;;15.60;99.90;;;;;;5089575;28;20437;-66
2023/06/02 08:15:52;;;;;;;12.85;3.25;;;15.70;99.90;;;;;;5088424;28;20848;-65
2023/06/02 08:18:18;;;;;;;16.10;3.92;;;15.60;99.90;;;;;;5101877;28;20040;-66
2023/06/02 08:20:45;;;;;;;18.15;4.80;;;15.50;99.90;;;;;;5098680;28;20028;-65
2023/06/02 08:23:11;;;;;;;16.38;4.78;;;15.40;99.90;;;;;;5106669;28;20068;-66
2023/06/02 08:25:38;;;;;;;13.68;3.88;;;15.20;99.90;;;;;;5102311;28;20119;-65
2023/06/02 08:28:07;;;;;;;10.40;2.90;;;15.10;99.90;;;;;;5092447;28;20044;-64
2023/06/02 08:30:35;;;;;;;11.88;3.40;;;15.30;99.90;;;;;;5091260;28;20067;-65
2023/06/02 08:33:08;;;;;;;8.20;2.75;;;15.40;99.90;;;;;;5092172;28;20054;-65
2023/06/02 08:35:36;;;;;;;14.20;3.83;;;15.60;99.90;;;;;;5091679;28;20807;-65
2023/06/02 08:38:03;;;;;;;15.73;4.28;;;15.80;99.90;;;;;;5091151;28;20101;-64
2023/06/02 08:40:39;;;;;;;8.65;3.25;;;15.80;99.90;;;;;;5092072;28;20109;-64
2023/06/02 08:43:08;;;;;;;7.90;3.20;;;16.00;99.90;;;;;;5094771;28;20043;-64
2023/06/02 08:45:34;;;;;;;16.10;3.72;;;16.00;99.90;;;;;;5092906;28;20043;-64
2023/06/02 08:48:05;;;;;;;15.77;4.05;;;16.10;99.90;;;;;;5091755;28;20493;-65
2023/06/02 08:50:33;;;;;;;11.35;3.15;;;16.20;99.90;;;;;;5100500;28;20048;-64
2023/06/02 08:53:03;;;;;;;10.77;2.95;;;16.30;99.90;;;;;;5107707;28;20062;-63
2023/06/02 08:55:29;;;;;;;9.75;2.33;;;16.40;99.90;;;;;;5096655;28;20872;-64
2023/06/02 08:57:55;;;;;;;8.40;2.50;;;16.20;99.90;;;;;;5101946;28;20054;-64
2023/06/02 09:00:21;;;;;;;9.65;2.65;;;16.20;99.90;;;;;;5114433;28;20050;-62
2023/06/02 09:02:48;;;;;;;8.15;2.97;;;16.30;99.90;;;;;;5108350;28;20031;-62
2023/06/02 09:05:16;;;;;;;13.77;3.13;;;16.40;99.90;;;;;;5095457;28;20071;-62
2023/06/02 09:07:46;;;;;;;14.38;3.45;;;16.40;99.90;;;;;;5110998;28;20031;-61
2023/06/02 09:10:31;;;;;;;8.80;3.15;;;16.40;99.90;;;;;;5115890;28;20043;-63
2023/06/02 09:12:57;;;;;;;9.75;2.65;;;16.50;99.90;;;;;;5100755;28;20507;-63
2023/06/02 09:15:25;;;;;;;7.45;2.35;;;16.50;99.90;;;;;;5115703;28;20036;-63
2023/06/02 09:17:51;;;;;;;10.88;2.55;;;16.50;99.90;;;;;;5109699;27;20093;-63
2023/06/02 09:20:17;;;;;;;8.02;2.38;;;16.60;99.90;;;;;;5128576;27;20031;-64
2023/06/02 09:22:53;;;;;;;6.80;1.80;;;16.60;99.90;;;;;;5107983;28;20040;-63
2023/06/02 09:25:24;;;;;;;9.80;2.90;;;16.70;99.90;;;;;;5096639;28;20455;-63
2023/06/02 09:27:51;;;;;;;8.38;2.63;;;16.80;99.90;;;;;;5094499;28;20089;-63
2023/06/02 09:30:17;;;;;;;6.53;2.25;;;16.80;99.90;;;;;;5094817;28;20028;-64
2023/06/02 09:32:52;;;;;;;10.93;2.60;;;16.70;99.90;;;;;;5094138;28;20388;-63
2023/06/02 09:35:40;;;;;;;7.82;2.10;;;16.80;99.90;;;;;;5102763;28;20032;-64
2023/06/02 09:38:09;;;;;;;9.38;2.53;;;16.60;99.90;;;;;;5110363;28;20079;-63
2023/06/02 09:40:36;;;;;;;6.13;2.30;;;16.60;99.90;;;;;;5112571;28;20047;-63
2023/06/02 09:43:04;;;;;;;12.10;2.55;;;16.60;99.90;;;;;;5107054;28;20520;-63
2023/06/02 09:45:30;;;;;;;9.13;2.40;;;16.70;99.90;;;;;;5113715;28;20388;-64
2023/06/02 09:47:57;;;;;;;5.35;1.88;;;16.80;99.90;;;;;;5108304;28;20039;-63
2023/06/02 09:50:37;;;;;;;5.18;1.45;;;16.80;99.90;;;;;;5104662;28;20044;-63
2023/06/02 09:53:07;;;;;;;20.20;2.50;;;16.90;99.90;;;;;;5105991;28;20048;-63
2023/06/02 09:55:38;;;;;;;5.88;2.05;;;17.00;99.90;;;;;;5109091;28;20045;-63
2023/06/02 09:58:05;;;;;;;5.80;1.63;;;17.00;99.90;;;;;;5077877;28;20079;-63
2023/06/02 10:00:31;;;;;;;9.45;2.42;;;17.00;99.90;;;;;;5092239;28;20422;-63
2023/06/02 10:02:57;;;;;;;7.05;2.13;;;17.20;99.90;;;;;;5105696;28;20074;-64
2023/06/02 10:05:23;;;;;;;8.85;2.60;;;17.20;99.90;;;;;;5114772;28;20075;-63
2023/06/02 10:08:15;;;;;;;6.55;2.03;;;17.30;99.90;;;;;;5112338;28;20122;-63
2023/06/02 10:10:53;;;;;;;8.05;2.03;;;17.30;99.90;;;;;;5113320;28;20416;-63
2023/06/02 10:13:30;;;;;;;7.50;1.73;;;17.30;99.90;;;;;;5113508;28;20439;-64
2023/06/02 10:16:04;;;;;;;6.90;1.88;;;17.40;99.90;;;;;;5095182;28;20066;-63
2023/06/02 10:19:00;;;;;;;7.27;1.50;;;17.40;99.90;;;;;;5102948;28;20040;-63
2023/06/02 10:22:00;;;;;;;8.65;2.28;;;17.40;99.90;;;;;;5093685;28;20050;-63
2023/06/02 10:24:51;;;;;;;9.05;2.45;;;17.40;99.90;;;;;;5084641;28;20079;-63
2023/06/02 10:27:33;;;;;;;12.57;2.45;;;17.50;99.90;;;;;;5092858;28;20036;-63
2023/06/02 10:29:59;;;;;;;6.57;1.75;;;17.40;99.90;;;;;;5091616;28;20039;-62
2023/06/02 10:32:27;;;;;;;4.75;1.80;;;17.50;99.90;;;;;;5099484;28;22067;-64
2023/06/02 10:34:56;;;;;;;8.90;1.58;;;17.60;99.90;;;;;;5097213;28;20040;-64
2023/06/02 10:37:23;;;;;;;7.53;1.88;;;17.60;99.90;;;;;;5075931;28;20043;-63
2023/06/02 10:39:52;;;;;;;6.50;1.80;;;17.70;99.90;;;;;;5092545;28;20048;-63
2023/06/02 10:42:19;;;;;;;10.27;2.15;;;17.70;99.90;;;;;;5091796;28;20086;-63
2023/06/02 10:44:47;;;;;;;6.85;2.03;;;17.70;99.90;;;;;;5075975;28;20040;-64
2023/06/02 10:47:18;;;;;;;7.72;2.33;;;17.60;99.90;;;;;;5092553;28;20492;-64
2023/06/02 10:50:04;;;;;;;5.28;1.40;;;17.60;99.90;;;;;;5075178;28;20031;-63
2023/06/02 10:52:34;;;;;;;5.65;1.58;;;17.70;99.80;;;;;;5092798;28;20048;-63
2023/06/02 10:55:13;;;;;;;6.78;1.77;;;17.80;99.90;;;;;;5093964;28;20380;-64
2023/06/02 10:57:48;;;;;;;6.80;1.75;;;17.90;99.90;;;;;;5091503;28;20043;-64
2023/06/02 11:00:32;;;;;;;4.05;1.50;;;17.90;99.80;;;;;;5093436;28;20563;-63
2023/06/02 11:03:05;;;;;;;5.38;1.52;;;17.90;98.00;;;;;;5092846;28;20086;-62
2023/06/02 11:05:32;;;;;;;5.40;1.70;;;17.80;99.10;;;;;;5092334;28;20055;-62
2023/06/02 11:08:14;;;;;;;4.22;1.70;;;17.90;99.40;;;;;;5075491;28;20062;-62
2023/06/02 11:10:43;;;;;;;6.20;1.40;;;17.90;98.40;;;;;;5091322;28;20055;-63
2023/06/02 11:13:10;;;;;;;4.43;1.70;;;17.90;98.60;;;;;;5091859;28;20138;-62
2023/06/02 11:15:37;;;;;;;3.65;1.65;;;18.00;98.00;;;;;;5091695;28;20055;-63
2023/06/02 11:18:21;;;;;;;4.22;1.55;;;18.00;97.20;;;;;;5092952;28;20119;-62
2023/06/02 11:20:49;;;;;;;4.57;1.33;;;18.10;96.60;;;;;;5099548;28;20039;-62
2023/06/02 11:23:17;;;;;;;5.95;2.03;;;18.10;96.50;;;;;;5112346;28;20074;-62
2023/06/02 11:25:43;;;;;;;5.80;1.83;;;18.20;96.60;;;;;;5111587;28;20044;-62
2023/06/02 11:28:21;;;;;;;5.00;1.85;;;18.20;97.60;;;;;;5102306;28;20040;-62
2023/06/02 11:31:13;;;;;;;6.35;1.80;;;18.20;97.60;;;;;;5092084;28;20048;-62
2023/06/02 11:33:48;;;;;;;5.93;1.77;;;18.10;98.30;;;;;;5092029;28;20558;-62
2023/06/02 11:36:39;;;;;;;4.20;1.50;;;18.10;98.70;;;;;;5093303;28;20044;-62
2023/06/02 11:39:09;;;;;;;4.78;1.60;;;18.20;99.40;;;;;;5091321;28;20093;-62
2023/06/02 11:41:34;;;;;;;6.35;1.90;;;18.20;99.10;;;;;;5093317;28;20385;-62
2023/06/02 11:44:09;;;;;;;8.18;2.42;;;18.30;99.50;;;;;;5091530;28;20048;-62
2023/06/02 11:46:35;;;;;;;7.00;1.88;;;18.20;99.90;;;;;;5092526;28;20039;-62
2023/06/02 11:49:01;;;;;;;7.45;2.47;;;18.20;99.90;;;;;;5105093;28;20110;-62
2023/06/02 11:51:27;;;;;;;10.55;2.60;;;18.10;99.90;;;;;;5092708;28;20089;-62
2023/06/02 11:54:07;;;;;;;7.93;1.98;;;18.00;99.90;;;;;;5101295;28;20032;-62
2023/06/02 11:56:35;;;;;;;6.10;2.38;;;18.00;99.90;;;;;;5094852;28;20384;-62
2023/06/02 11:59:00;;;;;;;6.93;2.53;;;18.00;99.90;;;;;;5112796;28;20032;-62
2023/06/02 12:01:33;;;;;;;9.48;2.53;;;17.90;99.90;;;;;;5112245;28;20038;-62
2023/06/02 12:04:04;;;;;;;6.25;2.72;;;17.90;99.90;;;;;;5094472;28;20047;-62
2023/06/02 12:06:34;;;;;;;7.32;2.60;;;18.00;99.90;;;;;;5091830;28;20044;-62
2023/06/02 12:09:13;;;;;;;7.18;2.58;;;18.00;99.90;;;;;;5091573;28;20043;-62
2023/06/02 12:11:39;;;;;;;5.00;2.30;;;18.20;99.90;;;;;;5091871;28;20051;-62
2023/06/02 12:14:09;;;;;;;8.05;2.20;;;18.40;99.90;;;;;;5106992;28;20057;-62
2023/06/02 12:16:40;;;;;;;5.50;2.60;;;18.40;99.90;;;;;;5113125;28;20040;-62
2023/06/02 12:19:14;;;;;;;11.15;3.25;;;18.40;99.90;;;;;;5094724;28;20048;-62
2023/06/02 12:21:40;;;;;;;11.00;2.50;;;18.40;99.90;;;;;;5092418;28;20032;-62
2023/06/02 12:24:06;;;;;;;7.22;2.58;;;18.40;99.90;;;;;;5091429;28;20048;-62
2023/06/02 12:26:44;;;;;;;9.82;2.33;;;18.30;99.90;;;;;;5092008;28;20388;-60
2023/06/02 12:29:10;;;;;;;9.00;2.47;;;18.30;99.90;;;;;;5090365;28;20085;-62
2023/06/02 12:31:38;;;;;;;7.55;2.83;;;18.20;99.90;;;;;;5092456;28;20044;-62
2023/06/02 12:34:08;;;;;;;7.72;2.60;;;18.30;99.90;;;;;;5092314;28;20043;-62
2023/06/02 12:36:35;;;;;;;7.40;2.17;;;18.50;99.90;;;;;;5090624;28;20077;-62
2023/06/02 12:39:03;;;;;;;4.90;2.25;;;18.60;99.90;;;;;;5090752;28;20110;-62
2023/06/02 12:41:29;;;;;;;8.40;2.92;;;18.50;99.90;;;;;;5090717;28;20483;-62
2023/06/02 12:43:54;;;;;;;9.13;2.95;;;18.50;99.90;;;;;;5095046;28;20076;-62
2023/06/02 12:46:21;;;;;;;7.53;2.22;;;18.60;99.90;;;;;;5084181;28;20430;-61
2023/06/02 12:48:47;;;;;;;6.70;2.70;;;18.40;99.90;;;;;;5098754;28;20041;-62
2023/06/02 12:51:13;;;;;;;9.65;2.28;;;18.30;99.90;;;;;;5101989;28;20409;-65
2023/06/02 12:53:39;;;;;;;8.75;2.95;;;18.20;99.90;;;;;;5088704;28;20036;-65
2023/06/02 12:56:05;;;;;;;8.30;3.05;;;18.40;99.90;;;;;;5096210;28;20103;-64
2023/06/02 12:58:31;;;;;;;8.48;3.08;;;18.40;99.90;;;;;;5095829;28;20079;-65
2023/06/02 13:00:57;;;;;;;8.23;2.97;;;18.40;99.90;;;;;;5112674;28;20555;-64
2023/06/02 13:03:23;;;;;;;6.85;2.63;;;18.50;99.90;;;;;;5106199;28;20377;-64
2023/06/02 13:06:02;;;;;;;6.78;2.67;;;18.30;99.90;;;;;;5095793;28;20389;-65
2023/06/02 13:08:29;;;;;;;8.02;2.67;;;18.20;99.90;;;;;;5101623;28;20481;-64
2023/06/02 13:10:55;;;;;;;6.15;2.85;;;18.20;99.90;;;;;;5104108;28;20044;-64
2023/06/02 13:13:22;;;;;;;6.20;2.50;;;18.20;99.90;;;;;;5097605;28;20056;-64
2023/06/02 13:15:48;;;;;;;8.25;3.10;;;18.10;99.90;;;;;;5108254;28;20126;-64
2023/06/02 13:18:14;;;;;;;6.95;2.88;;;18.10;99.90;;;;;;5107814;28;20474;-62
2023/06/02 13:20:40;;;;;;;10.40;3.25;;;18.20;99.90;;;;;;5110743;28;20036;-62
2023/06/02 13:23:06;;;;;;;7.30;2.63;;;18.20;99.90;;;;;;5110119;28;20032;-62
2023/06/02 13:25:33;;;;;;;7.28;3.08;;;18.10;99.90;;;;;;5109937;28;20395;-62
2023/06/02 13:27:59;;;;;;;6.20;2.55;;;18.00;99.90;;;;;;5110701;28;20047;-62
2023/06/02 13:30:25;;;;;;;7.43;2.85;;;18.00;99.90;;;;;;5093604;28;20047;-62
2023/06/02 13:32:51;;;;;;;8.70;2.67;;;18.00;99.90;;;;;;5111299;28;20465;-62
2023/06/02 13:35:18;;;;;;;8.82;2.92;;;18.20;99.90;;;;;;5098796;28;20170;-62
2023/06/02 13:37:44;;;;;;;7.32;2.85;;;18.30;99.90;;;;;;5110811;28;20082;-61
2023/06/02 13:40:10;;;;;;;9.50;3.28;;;18.20;99.90;;;;;;5105424;28;20040;-62
2023/06/02 13:42:35;;;;;;;9.68;3.65;;;18.10;99.90;;;;;;5105544;28;20047;-62
2023/06/02 13:45:02;;;;;;;6.82;3.03;;;17.90;99.90;;;;;;5113678;28;20104;-62
2023/06/02 13:47:28;;;;;;;8.07;2.80;;;17.80;99.90;;;;;;5115576;28;20054;-62
2023/06/02 13:49:53;;;;;;;7.43;3.50;;;17.80;99.90;;;;;;5113729;28;20027;-62
2023/06/02 13:52:19;;;;;;;6.55;2.65;;;17.90;99.90;;;;;;5113305;28;20476;-62
2023/06/02 13:54:45;;;;;;;8.15;2.47;;;18.00;99.90;;;;;;5103217;28;20097;-61
2023/06/02 13:57:10;;;;;;;10.35;2.72;;;18.10;99.90;;;;;;5112648;28;20100;-63
2023/06/02 13:59:36;;;;;;;7.32;2.40;;;18.20;99.90;;;;;;5108445;28;20431;-62